Station: Dover  

  Atmospheric Gas Attenuation - ITU Rec 676-11   ----------------- dB/100km -----------------
Date Time Temp RH % AH g/m3 Dew Point Wind Direction Speed kph Gust kph Barometer mB Rainfall Since 9am 24GHz 47GHz 76GHz 122GHz 134GHz 241GHz
08/05 09:00 10 83 7.8 7.3 32 1013.1 3 18.1 25.7 38.4 100.7 92.4 316.9
07/05 09:00 4.5 100 6.58 4.5 15 1013.1 9 15.7 25.2 35.9 94.1 81.9 279.5
06/05 09:00 12.9 88 9.92 11 20 1013.1 0.2 22.5 28.4 45.7 120.3 117.6 405.6
05/05 09:00 9.5 100 9.1 9.5 22 1013.1 0 20.9 28.0 44.2 116.1 111.1 382.4
04/05 09:00 10 100 9.4 10 9 1013.1 2 21.5 28.4 45.2 118.8 114.7 394.9
03/05 09:00 13.7 94 11.13 12.8 0 1013.1 0.2 25.0 30.2 50.5 133.0 133.5 461.3
02/05 09:00 11.8 90 9.47 10.2 6 1013.1 0 21.6 27.9 44.5 116.9 113.0 389.2
01/05 09:00 17.4 66 9.78 11.1 22 1013.1 0 21.9 26.7 42.6 112.1 109.1 376.4
30/04 09:00 8.9 93 8.15 7.9 7 1013.1 0.1 18.9 26.6 40.4 106.1 98.5 338.3
29/04 09:00 8.8 100 8.71 8.8 15 1013.1 0.2 20.1 27.6 42.9 112.6 106.6 366.4
28/04 09:00 12.7 85 9.46 10.2 15 1013.1 0 21.5 27.6 43.9 115.4 111.5 384.2
27/04 09:00 13 84 9.53 10.3 9 1013.1 0 21.6 27.7 44.0 115.8 112.0 386.1
26/04 09:00 12.9 89 10.03 11.2 13 1013.1 0 22.7 28.6 46.2 121.6 119.2 411.0
25/04 09:00 16.3 70 9.71 10.9 15 1013.1 0 21.8 26.9 43.0 112.9 109.7 378.5
24/04 09:00 11.5 97 10.02 11.1 7 1013.1 0.1 22.8 29.0 47.0 123.7 121.2 418.0
23/04 09:00 13.8 93 11.08 12.7 7 1013.1 2 24.9 30.1 50.2 132.2 132.6 458.2
22/04 09:00 12 84 8.95 9.4 15 1013.1 0.1 20.4 27.0 42.2 110.7 105.5 363.0
21/04 09:00 7.7 100 8.11 7.7 13 1013.1 0.1 18.8 26.9 40.9 107.3 99.5 341.7
20/04 09:00 9.8 91 8.45 8.4 19 1013.1 0.2 19.5 26.8 41.2 108.2 101.5 348.9
19/04 09:00 6.1 97 7.09 5.6 15 1013.1 0 16.7 25.6 37.3 97.8 87.2 298.3
18/04 09:00 9.6 70 6.41 4.4 26 1013.1 0.4 15.1 23.6 33.0 86.4 74.5 254.2
17/04 09:00 8.3 93 7.84 7.2 41 1013.1 10 18.2 26.2 39.4 103.4 95.0 325.9
16/04 09:00 13.5 76 8.89 9.4 26 1013.1 0.6 20.2 26.4 41.1 108.0 102.6 353.3
15/04 09:00 8.7 96 8.31 8.1 30 1013.1 1 19.2 26.9 41.2 108.2 101.0 347.1
14/04 09:00 12.2 84 9.07 9.6 30 1013.1 0.6 20.7 27.1 42.5 111.8 106.8 367.8
13/04 09:00 9.7 100 9.22 9.7 22 1013.1 4 21.1 28.2 44.6 117.2 112.5 387.4
12/04 09:00 6.7 100 7.6 6.7 22 1013.1 21 17.8 26.3 39.2 102.8 93.6 320.8
11/04 09:00 6.7 100 7.6 6.7 26 1013.1 13 17.8 26.3 39.2 102.8 93.6 320.8
10/04 09:00 10.2 73 6.95 5.6 22 1013.1 0.1 16.2 24.2 34.9 91.3 80.9 276.7
09/04 09:00 8.2 94 7.88 7.3 19 1013.1 0 18.3 26.3 39.6 104.0 95.7 328.2
08/04 09:00 9 91 8.03 7.7 20 1013.1 0.1 18.6 26.4 39.9 104.6 96.8 332.1
07/04 09:00 14.2 100 12.21 14.2 19 1013.1 3 27.3 32.0 55.0 145.0 148.4 513.4
06/04 09:00 8.3 100 8.43 8.3 6 1013.1 0.1 19.5 27.3 41.9 110.1 103.3 354.8
05/04 09:00 7.7 100 8.11 7.7 4 1013.1 18.8 26.9 40.9 107.3 99.5 341.7
04/04 09:00 5.2 100 6.89 5.2 15 1013.1 0.8 16.3 25.5 36.9 96.7 85.5 292.0
03/04 09:00 8.1 80 6.66 4.9 33 1013.1 1 15.7 24.4 34.7 90.7 79.2 270.6
02/04 09:00 13 89 10.09 11.3 0 1013.1 0 22.8 28.6 46.4 122.1 119.9 413.4
01/04 09:00 16.2 77 10.62 12.2 9 1013.1 0 23.8 28.5 46.8 123.0 122.2 421.9
31/03 09:00 12.1 95 10.19 11.3 9 1013.1 0.1 23.1 29.1 47.4 124.7 122.7 423.3
30/03 09:00 11.3 95 9.69 10.5 7 1013.1 0 22.1 28.5 45.7 120.2 116.8 402.6
29/03 09:00 8 100 8.27 8 9 1013.1 0.1 19.2 27.1 41.4 108.7 101.4 348.2
28/03 09:00 11 96 9.61 10.4 19 1013.1 0.1 21.9 28.4 45.5 119.7 116.2 400.2
27/03 09:00 7.7 96 7.79 7.1 11 1013.1 4 18.1 26.3 39.5 103.6 95.1 325.9
26/03 09:00 12.1 95 10.19 11.3 26 1013.1 0.8 23.1 29.1 47.4 124.7 122.7 423.3
25/03 09:00 12.5 100 11 12.5 15 1013.1 4 24.8 30.4 50.7 133.5 133.8 461.9
24/03 09:00 12.4 100 10.93 12.4 11 1013.1 25 24.7 30.3 50.5 132.9 132.9 458.9
23/03 09:00 15.4 97 12.74 14.9 15 1013.1 0 28.4 32.5 56.5 149.1 153.9 532.6
22/03 09:00 9.9 100 9.34 9.9 0 1013.1 0.1 21.4 28.3 45.0 118.3 114.0 392.4
21/03 09:00 17.1 75 10.92 12.6 22 1013.1 0 24.4 28.7 47.5 124.9 124.8 431.3
20/03 09:00 11.1 100 10.07 11.1 7 1013.1 0.1 22.9 29.2 47.5 124.9 122.6 422.7
19/03 09:00 9.8 100 9.28 9.8 9 1013.1 0.1 21.3 28.3 44.8 117.7 113.2 389.9
18/03 09:00 7.4 100 7.96 7.4 15 1013.1 0.1 18.5 26.7 40.4 106.0 97.8 335.6
17/03 09:00 12.5 89 9.79 10.8 22 1013.1 0.2 22.2 28.3 45.4 119.5 116.4 401.3
16/03 09:00 11.4 95 9.75 10.6 15 1013.1 0 22.2 28.6 45.9 120.7 117.5 405.1
15/03 09:00 9 100 8.82 9 7 1013.1 0.1 20.3 27.7 43.2 113.6 107.8 370.9
14/03 09:00 12.8 84 9.41 10.1 20 1013.1 0.1 21.4 27.5 43.6 114.7 110.7 381.3
13/03 09:00 8 100 8.27 8 15 1013.1 7 19.2 27.1 41.4 108.7 101.4 348.2
12/03 09:00 9.4 100 9.05 9.4 22 1013.1 15 20.8 28.0 44.0 115.7 110.5 380.4
11/03 09:00 14.9 100 12.74 14.9 11 1013.1 2 28.4 32.7 56.9 150.0 154.9 536.1
10/03 09:00 11.5 97 10.02 11.1 15 1013.1 0 22.8 29.0 47.0 123.7 121.2 418.0
09/03 09:00 10 95 8.93 9.2 15 1013.1 0 20.5 27.6 43.2 113.4 108.0 371.5
08/03 09:00 6.5 100 7.5 6.5 22 1013.1 0.1 17.6 26.2 38.9 101.9 92.5 316.7
07/03 09:00 13 84 9.53 10.3 15 1013.1 0 21.6 27.7 44.0 115.8 112.0 386.1
06/03 09:00 12.5 81 8.91 9.3 15 1013.1 0.8 20.3 26.8 41.7 109.6 104.2 358.8
05/03 09:00 18.5 58 9.18 10.1 59 1013.1 0 20.6 25.5 39.7 104.3 99.9 344.4
04/03 09:00 9.9 100 9.34 9.9 11 1013.1 0 21.4 28.3 45.0 118.3 114.0 392.4
03/03 09:00 9.2 100 8.93 9.2 15 1013.1 0.1 20.5 27.8 43.6 114.6 109.1 375.4
02/03 09:00 16.7 100 14.21 16.7 15 1013.1 6 31.5 34.7 62.3 164.4 173.2 600.1
01/03 09:00 16.7 81 11.51 13.5 9 1013.1 0 25.7 29.8 50.2 132.2 133.7 462.2
28/02 09:00 10 100 9.4 10 0 1013.1 0.1 21.5 28.4 45.2 118.8 114.7 394.9
27/02 09:00 9 100 8.82 9 6 1013.1 0.1 20.3 27.7 43.2 113.6 107.8 370.9
26/02 09:00 9.6 92 8.43 8.4 22 1013.1 0 19.4 26.9 41.2 108.3 101.5 348.9
25/02 09:00 11.5 90 9.3 9.9 17 1013.1 0.1 21.2 27.8 43.9 115.4 111.0 382.4
24/02 09:00 8.2 100 8.38 8.2 6 1013.1 0.1 19.4 27.2 41.8 109.7 102.7 352.8
23/02 09:00 13 67 7.6 7 28 1013.1 5 17.5 24.5 36.2 94.9 86.3 296.0
22/02 09:00 12.7 93 10.35 11.6 6 1013.1 0 23.4 29.2 47.7 125.6 124.0 427.9
21/02 09:00 11 87 8.71 9 7 1013.1 0 20.0 26.9 41.7 109.5 103.5 356.1
20/02 09:00 9 100 8.82 9 6 1013.1 0 20.3 27.7 43.2 113.6 107.8 370.9
19/02 09:00 14.4 84 10.38 11.8 22 1013.1 0.2 23.4 28.7 46.8 123.2 121.7 420.1
18/02 09:00 13.2 67 7.69 7.2 30 1013.1 5 17.7 24.6 36.5 95.6 87.2 299.3
17/02 09:00 17.6 75 11.25 13.2 20 1013.1 0 25.0 29.1 48.5 127.8 128.5 444.3
16/02 09:00 13.9 97 11.63 13.5 13 1013.1 0.1 26.1 31.0 52.6 138.6 140.5 485.5
15/02 09:00 13.4 93 10.81 12.3 9 1013.1 0 24.4 29.7 49.3 129.8 129.4 447.0
14/02 09:00 9.6 100 9.16 9.6 11 1013.1 0.2 21.0 28.1 44.4 116.6 111.8 384.9
13/02 09:00 13.3 82 9.47 10.4 7 1013.1 3 21.5 27.5 43.6 114.6 110.8 381.7
12/02 09:00 9.7 88 8.11 7.8 22 1013.1 7 18.7 26.3 39.9 104.6 97.0 333.0
11/02 09:00 16.6 93 13.14 15.4 9 1013.1 0 29.2 32.7 57.4 151.5 157.4 544.8
10/02 09:00 15 89 11.41 13.2 6 1013.1 0 25.5 30.2 50.9 134.0 135.3 467.5
09/02 09:00 11.7 100 10.46 11.7 7 1013.1 1 23.7 29.7 48.8 128.5 127.3 439.1
08/02 09:00 15.5 94 12.43 14.6 15 1013.1 1 27.7 31.9 55.0 145.1 149.1 516.0
07/02 09:00 16.6 73 10.31 11.8 22 1013.1 0 23.1 27.8 45.2 119.0 117.3 405.1
06/02 09:00 14.7 71 8.94 9.5 41 1013.1 0.2 20.3 26.2 40.7 106.9 101.7 350.2
05/02 09:00 14.2 79 9.65 10.6 20 1013.1 0.4 21.8 27.5 43.9 115.3 111.9 385.9
04/02 09:00 12.8 94 10.53 11.9 9 1013.1 0 23.8 29.5 48.4 127.5 126.4 436.4
03/02 09:00 11.3 91 9.28 9.9 15 1013.1 0.1 21.2 27.8 43.9 115.5 111.0 382.4
02/02 09:00 10.2 97 9.23 9.8 22 1013.1 3 21.1 28.0 44.3 116.5 111.9 385.4
01/02 09:00 13.2 64 7.35 6.5 22 1013.1 0.2 16.9 24.1 35.2 92.0 82.9 284.1
31/01 09:00 16 88 11.99 14.1 7 1013.1 0 26.7 30.9 52.7 139.0 141.8 490.3
30/01 09:00 16.6 83 11.72 13.8 6 1013.1 0 26.1 30.2 51.2 134.8 136.8 473.1
29/01 09:00 13.7 85 10.07 11.2 6 1013.1 0 22.7 28.4 45.9 120.8 118.5 408.7

Last Refresh: 08-May-2026 12:07:39

Bureau of Meteorology